sensor_id;sensor_type;location;lat;lon;timestamp;P1;durP1;ratioP1;P2;durP2;ratioP2
10947;SDS011;5526;42.070;24.752;2022-11-21T00:00:41;4.75;;;4.30;;
10947;SDS011;5526;42.070;24.752;2022-11-21T00:03:10;5.32;;;4.20;;
10947;SDS011;5526;42.070;24.752;2022-11-21T00:05:40;5.10;;;4.22;;
10947;SDS011;5526;42.070;24.752;2022-11-21T00:08:08;28.05;;;17.60;;
10947;SDS011;5526;42.070;24.752;2022-11-21T00:10:38;15.63;;;11.52;;
10947;SDS011;5526;42.070;24.752;2022-11-21T00:13:06;15.88;;;10.35;;
10947;SDS011;5526;42.070;24.752;2022-11-21T00:15:39;13.88;;;7.55;;
10947;SDS011;5526;42.070;24.752;2022-11-21T00:18:07;11.13;;;6.55;;
10947;SDS011;5526;42.070;24.752;2022-11-21T00:20:35;6.95;;;4.10;;
10947;SDS011;5526;42.070;24.752;2022-11-21T00:23:03;4.68;;;4.00;;
10947;SDS011;5526;42.070;24.752;2022-11-21T00:25:31;6.32;;;3.88;;
10947;SDS011;5526;42.070;24.752;2022-11-21T00:27:59;5.07;;;3.28;;
10947;SDS011;5526;42.070;24.752;2022-11-21T00:30:26;6.55;;;3.63;;
10947;SDS011;5526;42.070;24.752;2022-11-21T00:32:56;5.18;;;4.00;;
10947;SDS011;5526;42.070;24.752;2022-11-21T00:35:24;6.55;;;3.88;;
10947;SDS011;5526;42.070;24.752;2022-11-21T00:37:52;6.78;;;4.00;;
10947;SDS011;5526;42.070;24.752;2022-11-21T00:40:19;4.30;;;3.85;;
10947;SDS011;5526;42.070;24.752;2022-11-21T00:42:47;8.32;;;4.18;;
10947;SDS011;5526;42.070;24.752;2022-11-21T00:45:14;8.27;;;3.90;;
10947;SDS011;5526;42.070;24.752;2022-11-21T00:47:42;10.23;;;8.93;;
10947;SDS011;5526;42.070;24.752;2022-11-21T00:50:12;7.78;;;5.95;;
10947;SDS011;5526;42.070;24.752;2022-11-21T00:52:39;8.07;;;5.78;;
10947;SDS011;5526;42.070;24.752;2022-11-21T00:55:08;6.22;;;5.40;;
10947;SDS011;5526;42.070;24.752;2022-11-21T00:57:36;9.93;;;5.75;;
10947;SDS011;5526;42.070;24.752;2022-11-21T01:00:04;8.57;;;4.82;;
10947;SDS011;5526;42.070;24.752;2022-11-21T01:02:32;7.07;;;4.88;;
10947;SDS011;5526;42.070;24.752;2022-11-21T01:05:01;9.90;;;5.93;;
10947;SDS011;5526;42.070;24.752;2022-11-21T01:07:30;25.35;;;15.43;;
10947;SDS011;5526;42.070;24.752;2022-11-21T01:09:57;13.50;;;10.10;;
10947;SDS011;5526;42.070;24.752;2022-11-21T01:12:25;8.25;;;6.40;;
10947;SDS011;5526;42.070;24.752;2022-11-21T01:14:52;8.52;;;4.53;;
10947;SDS011;5526;42.070;24.752;2022-11-21T01:17:20;6.75;;;4.88;;
10947;SDS011;5526;42.070;24.752;2022-11-21T01:19:49;8.00;;;4.50;;
10947;SDS011;5526;42.070;24.752;2022-11-21T01:22:17;6.35;;;4.05;;
10947;SDS011;5526;42.070;24.752;2022-11-21T01:24:47;7.82;;;3.75;;
10947;SDS011;5526;42.070;24.752;2022-11-21T01:27:14;4.43;;;3.03;;
10947;SDS011;5526;42.070;24.752;2022-11-21T01:29:42;6.47;;;1.40;;
10947;SDS011;5526;42.070;24.752;2022-11-21T01:32:10;4.85;;;2.00;;
10947;SDS011;5526;42.070;24.752;2022-11-21T01:34:38;6.07;;;2.90;;
10947;SDS011;5526;42.070;24.752;2022-11-21T01:37:05;5.13;;;2.90;;
10947;SDS011;5526;42.070;24.752;2022-11-21T01:39:33;4.10;;;2.95;;
10947;SDS011;5526;42.070;24.752;2022-11-21T01:42:02;4.43;;;3.67;;
10947;SDS011;5526;42.070;24.752;2022-11-21T01:44:45;6.82;;;4.45;;
10947;SDS011;5526;42.070;24.752;2022-11-21T01:47:14;19.02;;;12.40;;
10947;SDS011;5526;42.070;24.752;2022-11-21T01:49:42;10.98;;;8.35;;
10947;SDS011;5526;42.070;24.752;2022-11-21T01:52:11;6.53;;;4.53;;
10947;SDS011;5526;42.070;24.752;2022-11-21T01:54:43;7.22;;;4.95;;
10947;SDS011;5526;42.070;24.752;2022-11-21T01:57:16;7.30;;;4.75;;
10947;SDS011;5526;42.070;24.752;2022-11-21T01:59:50;5.93;;;4.03;;
10947;SDS011;5526;42.070;24.752;2022-11-21T02:02:23;5.75;;;3.63;;
10947;SDS011;5526;42.070;24.752;2022-11-21T02:04:54;6.30;;;3.53;;
10947;SDS011;5526;42.070;24.752;2022-11-21T02:07:22;6.10;;;3.90;;
10947;SDS011;5526;42.070;24.752;2022-11-21T02:09:52;8.00;;;3.88;;
10947;SDS011;5526;42.070;24.752;2022-11-21T02:12:25;6.82;;;5.35;;
10947;SDS011;5526;42.070;24.752;2022-11-21T02:14:58;6.70;;;4.97;;
10947;SDS011;5526;42.070;24.752;2022-11-21T02:17:27;7.57;;;6.10;;
10947;SDS011;5526;42.070;24.752;2022-11-21T02:19:56;6.93;;;5.88;;
10947;SDS011;5526;42.070;24.752;2022-11-21T02:22:27;8.40;;;5.75;;
10947;SDS011;5526;42.070;24.752;2022-11-21T02:25:05;7.80;;;6.57;;
10947;SDS011;5526;42.070;24.752;2022-11-21T02:27:34;10.23;;;7.50;;
10947;SDS011;5526;42.070;24.752;2022-11-21T02:30:02;8.68;;;7.35;;
10947;SDS011;5526;42.070;24.752;2022-11-21T02:32:32;9.38;;;7.28;;
10947;SDS011;5526;42.070;24.752;2022-11-21T02:35:03;8.80;;;7.90;;
10947;SDS011;5526;42.070;24.752;2022-11-21T02:37:31;10.10;;;7.72;;
10947;SDS011;5526;42.070;24.752;2022-11-21T02:40:01;9.07;;;8.10;;
10947;SDS011;5526;42.070;24.752;2022-11-21T02:42:35;11.07;;;8.75;;
10947;SDS011;5526;42.070;24.752;2022-11-21T02:45:08;13.27;;;8.75;;
10947;SDS011;5526;42.070;24.752;2022-11-21T02:47:40;9.25;;;8.07;;
10947;SDS011;5526;42.070;24.752;2022-11-21T02:50:11;8.05;;;7.35;;
10947;SDS011;5526;42.070;24.752;2022-11-21T02:52:41;8.98;;;7.47;;
10947;SDS011;5526;42.070;24.752;2022-11-21T02:55:11;11.57;;;7.97;;
10947;SDS011;5526;42.070;24.752;2022-11-21T02:57:40;9.68;;;7.53;;
10947;SDS011;5526;42.070;24.752;2022-11-21T03:00:09;13.45;;;8.80;;
10947;SDS011;5526;42.070;24.752;2022-11-21T03:02:38;12.27;;;8.73;;
10947;SDS011;5526;42.070;24.752;2022-11-21T03:05:08;9.30;;;7.68;;
10947;SDS011;5526;42.070;24.752;2022-11-21T03:07:37;10.15;;;7.65;;
10947;SDS011;5526;42.070;24.752;2022-11-21T03:10:05;8.73;;;7.45;;
10947;SDS011;5526;42.070;24.752;2022-11-21T03:12:35;8.23;;;6.15;;
10947;SDS011;5526;42.070;24.752;2022-11-21T03:15:04;8.07;;;6.72;;
10947;SDS011;5526;42.070;24.752;2022-11-21T03:17:33;7.40;;;6.60;;
10947;SDS011;5526;42.070;24.752;2022-11-21T03:20:01;8.68;;;6.70;;
10947;SDS011;5526;42.070;24.752;2022-11-21T03:22:29;8.38;;;7.00;;
10947;SDS011;5526;42.070;24.752;2022-11-21T03:24:57;8.70;;;7.13;;
10947;SDS011;5526;42.070;24.752;2022-11-21T03:27:25;7.85;;;6.90;;
10947;SDS011;5526;42.070;24.752;2022-11-21T03:29:54;11.30;;;7.82;;
10947;SDS011;5526;42.070;24.752;2022-11-21T03:32:21;10.05;;;8.57;;
10947;SDS011;5526;42.070;24.752;2022-11-21T03:34:49;10.50;;;8.50;;
10947;SDS011;5526;42.070;24.752;2022-11-21T03:37:17;10.02;;;9.00;;
10947;SDS011;5526;42.070;24.752;2022-11-21T03:39:45;10.95;;;8.45;;
10947;SDS011;5526;42.070;24.752;2022-11-21T03:42:13;11.90;;;8.93;;
10947;SDS011;5526;42.070;24.752;2022-11-21T03:44:40;10.85;;;9.75;;
10947;SDS011;5526;42.070;24.752;2022-11-21T03:47:09;11.82;;;10.10;;
10947;SDS011;5526;42.070;24.752;2022-11-21T03:49:37;12.57;;;10.93;;
10947;SDS011;5526;42.070;24.752;2022-11-21T03:52:05;14.20;;;12.55;;
10947;SDS011;5526;42.070;24.752;2022-11-21T03:54:32;18.17;;;14.50;;
10947;SDS011;5526;42.070;24.752;2022-11-21T03:57:00;18.08;;;14.98;;
10947;SDS011;5526;42.070;24.752;2022-11-21T03:59:27;17.73;;;15.13;;
10947;SDS011;5526;42.070;24.752;2022-11-21T04:01:55;20.67;;;16.92;;
10947;SDS011;5526;42.070;24.752;2022-11-21T04:04:24;23.73;;;18.40;;
10947;SDS011;5526;42.070;24.752;2022-11-21T04:06:52;21.98;;;19.05;;
10947;SDS011;5526;42.070;24.752;2022-11-21T04:09:19;22.85;;;20.05;;
10947;SDS011;5526;42.070;24.752;2022-11-21T04:11:47;26.92;;;22.55;;
10947;SDS011;5526;42.070;24.752;2022-11-21T04:14:14;30.73;;;23.80;;
10947;SDS011;5526;42.070;24.752;2022-11-21T04:16:42;25.35;;;22.65;;
10947;SDS011;5526;42.070;24.752;2022-11-21T04:19:10;26.98;;;22.15;;
10947;SDS011;5526;42.070;24.752;2022-11-21T04:21:39;27.17;;;21.83;;
10947;SDS011;5526;42.070;24.752;2022-11-21T04:24:06;25.73;;;21.90;;
10947;SDS011;5526;42.070;24.752;2022-11-21T04:26:34;23.77;;;21.27;;
10947;SDS011;5526;42.070;24.752;2022-11-21T04:29:02;23.75;;;21.02;;
10947;SDS011;5526;42.070;24.752;2022-11-21T04:31:30;24.77;;;20.98;;
10947;SDS011;5526;42.070;24.752;2022-11-21T04:33:57;23.55;;;21.10;;
10947;SDS011;5526;42.070;24.752;2022-11-21T04:36:25;23.70;;;21.15;;
10947;SDS011;5526;42.070;24.752;2022-11-21T04:38:54;24.65;;;20.92;;
10947;SDS011;5526;42.070;24.752;2022-11-21T04:41:22;22.42;;;20.25;;
10947;SDS011;5526;42.070;24.752;2022-11-21T04:43:49;21.95;;;19.70;;
10947;SDS011;5526;42.070;24.752;2022-11-21T04:46:17;22.45;;;18.38;;
10947;SDS011;5526;42.070;24.752;2022-11-21T04:48:44;23.13;;;18.35;;
10947;SDS011;5526;42.070;24.752;2022-11-21T04:51:12;21.83;;;18.98;;
10947;SDS011;5526;42.070;24.752;2022-11-21T04:53:40;21.52;;;18.77;;
10947;SDS011;5526;42.070;24.752;2022-11-21T04:56:09;22.25;;;19.63;;
10947;SDS011;5526;42.070;24.752;2022-11-21T04:58:40;24.70;;;20.52;;
10947;SDS011;5526;42.070;24.752;2022-11-21T05:01:08;22.73;;;19.73;;
10947;SDS011;5526;42.070;24.752;2022-11-21T05:03:36;22.00;;;19.75;;
10947;SDS011;5526;42.070;24.752;2022-11-21T05:06:04;21.83;;;19.52;;
10947;SDS011;5526;42.070;24.752;2022-11-21T05:08:33;36.45;;;32.40;;
10947;SDS011;5526;42.070;24.752;2022-11-21T05:11:00;22.13;;;19.73;;
10947;SDS011;5526;42.070;24.752;2022-11-21T05:13:46;23.23;;;20.73;;
10947;SDS011;5526;42.070;24.752;2022-11-21T05:16:14;20.60;;;18.60;;
10947;SDS011;5526;42.070;24.752;2022-11-21T05:18:42;18.08;;;16.15;;
10947;SDS011;5526;42.070;24.752;2022-11-21T05:21:10;18.23;;;15.90;;
10947;SDS011;5526;42.070;24.752;2022-11-21T05:23:37;20.15;;;18.05;;
10947;SDS011;5526;42.070;24.752;2022-11-21T05:26:05;19.40;;;16.90;;
10947;SDS011;5526;42.070;24.752;2022-11-21T05:28:32;19.08;;;17.17;;
10947;SDS011;5526;42.070;24.752;2022-11-21T05:31:01;20.35;;;18.23;;
10947;SDS011;5526;42.070;24.752;2022-11-21T05:33:29;20.85;;;18.73;;
10947;SDS011;5526;42.070;24.752;2022-11-21T05:35:57;21.63;;;19.25;;
10947;SDS011;5526;42.070;24.752;2022-11-21T05:38:25;24.70;;;20.33;;
10947;SDS011;5526;42.070;24.752;2022-11-21T05:40:53;22.45;;;20.20;;
10947;SDS011;5526;42.070;24.752;2022-11-21T05:43:20;22.27;;;19.92;;
10947;SDS011;5526;42.070;24.752;2022-11-21T05:46:06;25.65;;;22.30;;
10947;SDS011;5526;42.070;24.752;2022-11-21T05:48:34;35.90;;;32.30;;
10947;SDS011;5526;42.070;24.752;2022-11-21T05:51:02;35.47;;;32.05;;
10947;SDS011;5526;42.070;24.752;2022-11-21T05:53:30;29.08;;;26.17;;
10947;SDS011;5526;42.070;24.752;2022-11-21T05:56:00;28.17;;;24.65;;
10947;SDS011;5526;42.070;24.752;2022-11-21T05:58:29;24.58;;;21.00;;
10947;SDS011;5526;42.070;24.752;2022-11-21T06:00:57;16.23;;;14.00;;
10947;SDS011;5526;42.070;24.752;2022-11-21T06:03:26;13.95;;;12.13;;
10947;SDS011;5526;42.070;24.752;2022-11-21T06:06:00;14.57;;;12.65;;
10947;SDS011;5526;42.070;24.752;2022-11-21T06:08:30;14.73;;;12.02;;
10947;SDS011;5526;42.070;24.752;2022-11-21T06:10:59;20.80;;;16.90;;
10947;SDS011;5526;42.070;24.752;2022-11-21T06:13:28;21.17;;;18.48;;
10947;SDS011;5526;42.070;24.752;2022-11-21T06:15:58;18.38;;;16.42;;
10947;SDS011;5526;42.070;24.752;2022-11-21T06:18:30;18.02;;;14.15;;
10947;SDS011;5526;42.070;24.752;2022-11-21T06:21:02;12.52;;;9.73;;
10947;SDS011;5526;42.070;24.752;2022-11-21T06:23:30;11.77;;;10.20;;
10947;SDS011;5526;42.070;24.752;2022-11-21T06:25:58;12.20;;;8.15;;
10947;SDS011;5526;42.070;24.752;2022-11-21T06:28:29;11.82;;;9.18;;
10947;SDS011;5526;42.070;24.752;2022-11-21T06:31:00;10.80;;;9.45;;
10947;SDS011;5526;42.070;24.752;2022-11-21T06:33:30;13.10;;;9.98;;
10947;SDS011;5526;42.070;24.752;2022-11-21T06:36:00;11.63;;;9.35;;
10947;SDS011;5526;42.070;24.752;2022-11-21T06:38:28;10.43;;;9.27;;
10947;SDS011;5526;42.070;24.752;2022-11-21T06:40:56;11.48;;;9.02;;
10947;SDS011;5526;42.070;24.752;2022-11-21T06:43:24;11.73;;;8.98;;
10947;SDS011;5526;42.070;24.752;2022-11-21T06:45:54;10.25;;;7.40;;
10947;SDS011;5526;42.070;24.752;2022-11-21T06:48:23;9.73;;;6.60;;
10947;SDS011;5526;42.070;24.752;2022-11-21T06:50:52;10.27;;;7.22;;
10947;SDS011;5526;42.070;24.752;2022-11-21T06:53:20;10.45;;;7.80;;
10947;SDS011;5526;42.070;24.752;2022-11-21T06:55:47;10.63;;;7.53;;
10947;SDS011;5526;42.070;24.752;2022-11-21T06:58:15;8.57;;;7.15;;
10947;SDS011;5526;42.070;24.752;2022-11-21T07:00:43;10.23;;;6.07;;
10947;SDS011;5526;42.070;24.752;2022-11-21T07:03:13;6.65;;;5.07;;
10947;SDS011;5526;42.070;24.752;2022-11-21T07:05:40;8.63;;;5.07;;
10947;SDS011;5526;42.070;24.752;2022-11-21T07:08:09;6.90;;;4.57;;
10947;SDS011;5526;42.070;24.752;2022-11-21T07:10:37;9.77;;;3.78;;
10947;SDS011;5526;42.070;24.752;2022-11-21T07:13:05;7.00;;;4.30;;
10947;SDS011;5526;42.070;24.752;2022-11-21T07:15:48;6.95;;;4.28;;
10947;SDS011;5526;42.070;24.752;2022-11-21T07:18:17;11.38;;;4.75;;
10947;SDS011;5526;42.070;24.752;2022-11-21T07:20:45;6.53;;;3.15;;
10947;SDS011;5526;42.070;24.752;2022-11-21T07:23:14;6.75;;;3.10;;
10947;SDS011;5526;42.070;24.752;2022-11-21T07:25:42;6.22;;;3.88;;
10947;SDS011;5526;42.070;24.752;2022-11-21T07:28:10;5.35;;;4.70;;
10947;SDS011;5526;42.070;24.752;2022-11-21T07:30:38;8.10;;;5.30;;
10947;SDS011;5526;42.070;24.752;2022-11-21T07:33:06;8.52;;;5.07;;
10947;SDS011;5526;42.070;24.752;2022-11-21T07:35:34;5.95;;;4.78;;
10947;SDS011;5526;42.070;24.752;2022-11-21T07:38:02;5.78;;;5.05;;
10947;SDS011;5526;42.070;24.752;2022-11-21T07:40:32;9.52;;;5.00;;
10947;SDS011;5526;42.070;24.752;2022-11-21T07:42:59;7.90;;;4.53;;
10947;SDS011;5526;42.070;24.752;2022-11-21T07:45:28;6.50;;;4.07;;
10947;SDS011;5526;42.070;24.752;2022-11-21T07:47:56;7.15;;;3.78;;
10947;SDS011;5526;42.070;24.752;2022-11-21T07:50:24;7.22;;;5.80;;
10947;SDS011;5526;42.070;24.752;2022-11-21T07:52:55;7.70;;;4.85;;
10947;SDS011;5526;42.070;24.752;2022-11-21T07:55:23;5.85;;;4.10;;
10947;SDS011;5526;42.070;24.752;2022-11-21T07:57:58;8.70;;;5.97;;
10947;SDS011;5526;42.070;24.752;2022-11-21T08:00:26;7.68;;;3.92;;
10947;SDS011;5526;42.070;24.752;2022-11-21T08:02:55;5.35;;;2.83;;
10947;SDS011;5526;42.070;24.752;2022-11-21T08:05:23;5.82;;;2.53;;
10947;SDS011;5526;42.070;24.752;2022-11-21T08:07:50;7.72;;;2.67;;
10947;SDS011;5526;42.070;24.752;2022-11-21T08:10:18;5.53;;;2.83;;
10947;SDS011;5526;42.070;24.752;2022-11-21T08:12:46;5.60;;;2.90;;
10947;SDS011;5526;42.070;24.752;2022-11-21T08:15:15;6.10;;;3.08;;
10947;SDS011;5526;42.070;24.752;2022-11-21T08:17:43;6.50;;;2.95;;
10947;SDS011;5526;42.070;24.752;2022-11-21T08:20:10;8.05;;;3.30;;
10947;SDS011;5526;42.070;24.752;2022-11-21T08:22:39;5.78;;;3.47;;
10947;SDS011;5526;42.070;24.752;2022-11-21T08:25:08;5.72;;;3.75;;
10947;SDS011;5526;42.070;24.752;2022-11-21T08:27:36;7.70;;;3.47;;
10947;SDS011;5526;42.070;24.752;2022-11-21T08:30:05;4.55;;;3.42;;
10947;SDS011;5526;42.070;24.752;2022-11-21T08:32:35;5.78;;;3.22;;
10947;SDS011;5526;42.070;24.752;2022-11-21T08:35:03;7.65;;;3.25;;
10947;SDS011;5526;42.070;24.752;2022-11-21T08:37:31;6.85;;;2.90;;
10947;SDS011;5526;42.070;24.752;2022-11-21T08:39:59;3.10;;;2.80;;
10947;SDS011;5526;42.070;24.752;2022-11-21T08:42:27;5.15;;;3.13;;
10947;SDS011;5526;42.070;24.752;2022-11-21T08:44:54;10.00;;;6.55;;
10947;SDS011;5526;42.070;24.752;2022-11-21T08:47:22;9.50;;;6.47;;
10947;SDS011;5526;42.070;24.752;2022-11-21T08:49:51;7.80;;;6.10;;
10947;SDS011;5526;42.070;24.752;2022-11-21T08:52:19;6.90;;;3.42;;
10947;SDS011;5526;42.070;24.752;2022-11-21T08:54:46;6.57;;;3.00;;
10947;SDS011;5526;42.070;24.752;2022-11-21T08:57:15;3.85;;;1.40;;
10947;SDS011;5526;42.070;24.752;2022-11-21T08:59:42;3.25;;;1.35;;
10947;SDS011;5526;42.070;24.752;2022-11-21T09:02:10;2.92;;;0.90;;
10947;SDS011;5526;42.070;24.752;2022-11-21T09:04:38;1.70;;;0.73;;
10947;SDS011;5526;42.070;24.752;2022-11-21T09:07:07;3.15;;;1.30;;
10947;SDS011;5526;42.070;24.752;2022-11-21T09:09:34;3.85;;;0.98;;
10947;SDS011;5526;42.070;24.752;2022-11-21T09:12:02;2.13;;;1.10;;
10947;SDS011;5526;42.070;24.752;2022-11-21T09:14:29;2.20;;;1.20;;
10947;SDS011;5526;42.070;24.752;2022-11-21T09:17:14;3.28;;;0.40;;
10947;SDS011;5526;42.070;24.752;2022-11-21T09:19:59;1.60;;;0.50;;
10947;SDS011;5526;42.070;24.752;2022-11-21T09:22:28;0.90;;;0.30;;
10947;SDS011;5526;42.070;24.752;2022-11-21T09:24:55;2.42;;;0.75;;
10947;SDS011;5526;42.070;24.752;2022-11-21T09:27:22;1.17;;;0.40;;
10947;SDS011;5526;42.070;24.752;2022-11-21T09:29:50;2.05;;;0.60;;
10947;SDS011;5526;42.070;24.752;2022-11-21T09:32:17;2.40;;;0.50;;
10947;SDS011;5526;42.070;24.752;2022-11-21T09:34:45;0.68;;;0.30;;
10947;SDS011;5526;42.070;24.752;2022-11-21T09:37:13;4.53;;;0.40;;
10947;SDS011;5526;42.070;24.752;2022-11-21T09:39:42;0.32;;;0.32;;
10947;SDS011;5526;42.070;24.752;2022-11-21T09:42:18;2.90;;;0.47;;
10947;SDS011;5526;42.070;24.752;2022-11-21T09:45:06;1.38;;;0.50;;
10947;SDS011;5526;42.070;24.752;2022-11-21T09:47:37;0.52;;;0.20;;
10947;SDS011;5526;42.070;24.752;2022-11-21T09:50:16;0.85;;;0.30;;
10947;SDS011;5526;42.070;24.752;2022-11-21T09:52:52;0.80;;;0.20;;
10947;SDS011;5526;42.070;24.752;2022-11-21T09:55:26;0.68;;;0.40;;
10947;SDS011;5526;42.070;24.752;2022-11-21T09:58:03;1.35;;;0.40;;
10947;SDS011;5526;42.070;24.752;2022-11-21T10:00:35;2.78;;;0.47;;
10947;SDS011;5526;42.070;24.752;2022-11-21T10:03:03;2.08;;;0.60;;
10947;SDS011;5526;42.070;24.752;2022-11-21T10:05:32;2.63;;;0.50;;
10947;SDS011;5526;42.070;24.752;2022-11-21T10:08:05;3.45;;;0.70;;
10947;SDS011;5526;42.070;24.752;2022-11-21T10:10:45;1.83;;;0.40;;
10947;SDS011;5526;42.070;24.752;2022-11-21T10:13:24;1.63;;;0.38;;
10947;SDS011;5526;42.070;24.752;2022-11-21T10:16:11;0.80;;;0.30;;
10947;SDS011;5526;42.070;24.752;2022-11-21T10:18:54;1.38;;;0.50;;
10947;SDS011;5526;42.070;24.752;2022-11-21T10:21:46;1.90;;;0.30;;
10947;SDS011;5526;42.070;24.752;2022-11-21T10:24:43;0.95;;;0.20;;
10947;SDS011;5526;42.070;24.752;2022-11-21T10:27:23;1.92;;;0.40;;
10947;SDS011;5526;42.070;24.752;2022-11-21T10:29:59;1.08;;;0.32;;
10947;SDS011;5526;42.070;24.752;2022-11-21T10:32:31;1.02;;;0.30;;
10947;SDS011;5526;42.070;24.752;2022-11-21T10:35:10;2.60;;;0.40;;
10947;SDS011;5526;42.070;24.752;2022-11-21T10:37:42;0.68;;;0.22;;
10947;SDS011;5526;42.070;24.752;2022-11-21T10:40:17;2.15;;;0.35;;
10947;SDS011;5526;42.070;24.752;2022-11-21T10:42:54;2.75;;;0.40;;
10947;SDS011;5526;42.070;24.752;2022-11-21T10:45:45;2.20;;;0.45;;
10947;SDS011;5526;42.070;24.752;2022-11-21T10:48:12;2.67;;;0.43;;
10947;SDS011;5526;42.070;24.752;2022-11-21T10:50:41;2.13;;;0.45;;
10947;SDS011;5526;42.070;24.752;2022-11-21T10:53:20;3.10;;;0.60;;
10947;SDS011;5526;42.070;24.752;2022-11-21T10:56:08;3.10;;;0.88;;
10947;SDS011;5526;42.070;24.752;2022-11-21T10:58:41;3.13;;;0.63;;
10947;SDS011;5526;42.070;24.752;2022-11-21T11:01:20;1.15;;;0.60;;
10947;SDS011;5526;42.070;24.752;2022-11-21T11:04:03;3.40;;;0.80;;
10947;SDS011;5526;42.070;24.752;2022-11-21T11:06:33;2.55;;;1.00;;
10947;SDS011;5526;42.070;24.752;2022-11-21T11:09:01;2.22;;;0.73;;
10947;SDS011;5526;42.070;24.752;2022-11-21T11:11:29;0.75;;;0.60;;
10947;SDS011;5526;42.070;24.752;2022-11-21T11:13:59;2.92;;;0.85;;
10947;SDS011;5526;42.070;24.752;2022-11-21T11:16:28;2.50;;;0.90;;
10947;SDS011;5526;42.070;24.752;2022-11-21T11:18:58;3.28;;;0.60;;
10947;SDS011;5526;42.070;24.752;2022-11-21T11:21:27;3.40;;;0.90;;
10947;SDS011;5526;42.070;24.752;2022-11-21T11:24:05;1.88;;;0.60;;
10947;SDS011;5526;42.070;24.752;2022-11-21T11:26:49;2.30;;;0.57;;
10947;SDS011;5526;42.070;24.752;2022-11-21T11:29:23;2.45;;;0.70;;
10947;SDS011;5526;42.070;24.752;2022-11-21T11:31:53;1.33;;;0.60;;
10947;SDS011;5526;42.070;24.752;2022-11-21T11:34:22;1.75;;;0.70;;
10947;SDS011;5526;42.070;24.752;2022-11-21T11:36:59;4.82;;;0.70;;
10947;SDS011;5526;42.070;24.752;2022-11-21T11:39:42;0.47;;;0.47;;
10947;SDS011;5526;42.070;24.752;2022-11-21T11:45:47;1.70;;;0.50;;
10947;SDS011;5526;42.070;24.752;2022-11-21T11:48:44;0.75;;;0.52;;
10947;SDS011;5526;42.070;24.752;2022-11-21T11:51:15;2.00;;;0.60;;
10947;SDS011;5526;42.070;24.752;2022-11-21T11:54:01;1.10;;;0.50;;
10947;SDS011;5526;42.070;24.752;2022-11-21T11:56:39;1.15;;;0.40;;
10947;SDS011;5526;42.070;24.752;2022-11-21T11:59:11;1.67;;;0.70;;
10947;SDS011;5526;42.070;24.752;2022-11-21T12:01:47;3.05;;;0.70;;
10947;SDS011;5526;42.070;24.752;2022-11-21T12:04:19;4.00;;;1.10;;
10947;SDS011;5526;42.070;24.752;2022-11-21T12:06:50;1.00;;;0.50;;
10947;SDS011;5526;42.070;24.752;2022-11-21T12:09:23;2.22;;;0.80;;
10947;SDS011;5526;42.070;24.752;2022-11-21T12:11:58;1.60;;;0.60;;
10947;SDS011;5526;42.070;24.752;2022-11-21T12:14:42;1.85;;;0.50;;
10947;SDS011;5526;42.070;24.752;2022-11-21T12:17:36;0.70;;;0.70;;
10947;SDS011;5526;42.070;24.752;2022-11-21T12:20:12;1.30;;;0.50;;
10947;SDS011;5526;42.070;24.752;2022-11-21T12:22:41;2.30;;;0.50;;
10947;SDS011;5526;42.070;24.752;2022-11-21T12:25:12;0.68;;;0.60;;
10947;SDS011;5526;42.070;24.752;2022-11-21T12:27:40;0.55;;;0.50;;
10947;SDS011;5526;42.070;24.752;2022-11-21T12:30:13;1.73;;;0.70;;
10947;SDS011;5526;42.070;24.752;2022-11-21T12:33:00;1.27;;;0.60;;
10947;SDS011;5526;42.070;24.752;2022-11-21T12:35:41;2.85;;;0.80;;
10947;SDS011;5526;42.070;24.752;2022-11-21T12:38:32;0.50;;;0.50;;
10947;SDS011;5526;42.070;24.752;2022-11-21T12:41:13;0.40;;;0.40;;
10947;SDS011;5526;42.070;24.752;2022-11-21T12:44:08;1.77;;;0.50;;
10947;SDS011;5526;42.070;24.752;2022-11-21T12:46:51;4.53;;;0.70;;
10947;SDS011;5526;42.070;24.752;2022-11-21T12:49:29;2.85;;;0.88;;
10947;SDS011;5526;42.070;24.752;2022-11-21T12:52:22;1.10;;;0.50;;
10947;SDS011;5526;42.070;24.752;2022-11-21T12:55:15;1.38;;;0.63;;
10947;SDS011;5526;42.070;24.752;2022-11-21T12:57:55;1.67;;;0.50;;
10947;SDS011;5526;42.070;24.752;2022-11-21T13:03:46;2.45;;;0.70;;
10947;SDS011;5526;42.070;24.752;2022-11-21T13:06:23;1.58;;;0.70;;
10947;SDS011;5526;42.070;24.752;2022-11-21T13:08:54;1.80;;;0.60;;
10947;SDS011;5526;42.070;24.752;2022-11-21T13:14:28;0.98;;;0.50;;
10947;SDS011;5526;42.070;24.752;2022-11-21T13:17:03;3.38;;;0.73;;
10947;SDS011;5526;42.070;24.752;2022-11-21T13:19:41;1.38;;;0.63;;
10947;SDS011;5526;42.070;24.752;2022-11-21T13:31:14;2.67;;;0.85;;
10947;SDS011;5526;42.070;24.752;2022-11-21T13:33:53;2.05;;;0.70;;
10947;SDS011;5526;42.070;24.752;2022-11-21T13:36:40;1.52;;;0.60;;
10947;SDS011;5526;42.070;24.752;2022-11-21T13:39:23;2.15;;;0.55;;
10947;SDS011;5526;42.070;24.752;2022-11-21T13:42:03;1.95;;;0.80;;
10947;SDS011;5526;42.070;24.752;2022-11-21T13:44:58;2.33;;;0.90;;
10947;SDS011;5526;42.070;24.752;2022-11-21T13:47:52;1.77;;;1.10;;
10947;SDS011;5526;42.070;24.752;2022-11-21T13:50:46;2.28;;;0.80;;
10947;SDS011;5526;42.070;24.752;2022-11-21T13:53:42;1.83;;;0.60;;
10947;SDS011;5526;42.070;24.752;2022-11-21T13:56:32;0.95;;;0.60;;
10947;SDS011;5526;42.070;24.752;2022-11-21T13:59:10;2.38;;;0.63;;
10947;SDS011;5526;42.070;24.752;2022-11-21T14:07:50;2.33;;;0.75;;
10947;SDS011;5526;42.070;24.752;2022-11-21T14:10:18;1.80;;;1.08;;
10947;SDS011;5526;42.070;24.752;2022-11-21T14:12:59;2.50;;;1.30;;
10947;SDS011;5526;42.070;24.752;2022-11-21T14:15:30;3.40;;;1.45;;
10947;SDS011;5526;42.070;24.752;2022-11-21T14:18:04;4.10;;;1.73;;
10947;SDS011;5526;42.070;24.752;2022-11-21T14:20:33;2.40;;;1.50;;
10947;SDS011;5526;42.070;24.752;2022-11-21T14:23:15;1.95;;;1.38;;
10947;SDS011;5526;42.070;24.752;2022-11-21T14:25:44;3.63;;;1.30;;
10947;SDS011;5526;42.070;24.752;2022-11-21T14:28:16;4.13;;;1.38;;
10947;SDS011;5526;42.070;24.752;2022-11-21T14:30:54;2.13;;;1.20;;
10947;SDS011;5526;42.070;24.752;2022-11-21T14:33:23;1.80;;;1.20;;
10947;SDS011;5526;42.070;24.752;2022-11-21T14:35:54;3.08;;;1.15;;
10947;SDS011;5526;42.070;24.752;2022-11-21T14:38:28;1.08;;;0.98;;
10947;SDS011;5526;42.070;24.752;2022-11-21T14:44:02;1.77;;;0.73;;
10947;SDS011;5526;42.070;24.752;2022-11-21T14:46:31;0.98;;;0.80;;
10947;SDS011;5526;42.070;24.752;2022-11-21T14:49:15;1.45;;;1.30;;
10947;SDS011;5526;42.070;24.752;2022-11-21T14:51:48;1.77;;;1.10;;
10947;SDS011;5526;42.070;24.752;2022-11-21T14:54:18;2.45;;;1.50;;
10947;SDS011;5526;42.070;24.752;2022-11-21T14:56:48;3.58;;;1.38;;
10947;SDS011;5526;42.070;24.752;2022-11-21T14:59:25;1.73;;;1.42;;
10947;SDS011;5526;42.070;24.752;2022-11-21T15:01:58;1.92;;;1.60;;
10947;SDS011;5526;42.070;24.752;2022-11-21T15:04:31;1.77;;;1.67;;
10947;SDS011;5526;42.070;24.752;2022-11-21T15:07:00;2.20;;;1.25;;
10947;SDS011;5526;42.070;24.752;2022-11-21T15:09:28;3.17;;;1.20;;
10947;SDS011;5526;42.070;24.752;2022-11-21T15:11:58;1.98;;;1.40;;
10947;SDS011;5526;42.070;24.752;2022-11-21T15:14:32;2.75;;;1.60;;
10947;SDS011;5526;42.070;24.752;2022-11-21T15:17:06;3.28;;;1.67;;
10947;SDS011;5526;42.070;24.752;2022-11-21T15:19:37;2.28;;;1.50;;
10947;SDS011;5526;42.070;24.752;2022-11-21T15:22:05;2.20;;;2.00;;
10947;SDS011;5526;42.070;24.752;2022-11-21T15:24:35;2.25;;;1.33;;
10947;SDS011;5526;42.070;24.752;2022-11-21T15:27:22;3.35;;;1.75;;
10947;SDS011;5526;42.070;24.752;2022-11-21T15:30:02;3.95;;;1.58;;
10947;SDS011;5526;42.070;24.752;2022-11-21T15:32:32;2.85;;;1.23;;
10947;SDS011;5526;42.070;24.752;2022-11-21T15:37:54;2.90;;;1.65;;